sensor_id;sensor_type;location;lat;lon;timestamp;temperature;humidity
28725;DHT22;43472;48.980;9.646;2022-10-16T00:00:41;15.50;99.90
28725;DHT22;43472;48.980;9.646;2022-10-16T00:05:44;15.80;99.90
28725;DHT22;43472;48.980;9.646;2022-10-16T00:25:58;15.60;99.90
28725;DHT22;43472;48.980;9.646;2022-10-16T00:31:06;15.70;99.90
28725;DHT22;43472;48.980;9.646;2022-10-16T00:36:11;15.50;99.90
28725;DHT22;43472;48.980;9.646;2022-10-16T00:41:16;16.30;99.90
28725;DHT22;43472;48.980;9.646;2022-10-16T00:51:30;15.70;99.90
28725;DHT22;43472;48.980;9.646;2022-10-16T00:56:33;15.70;99.90
28725;DHT22;43472;48.980;9.646;2022-10-16T01:01:35;15.70;99.90
28725;DHT22;43472;48.980;9.646;2022-10-16T01:12:12;15.70;99.90
28725;DHT22;43472;48.980;9.646;2022-10-16T01:17:20;15.60;99.90
28725;DHT22;43472;48.980;9.646;2022-10-16T01:27:30;15.70;99.90
28725;DHT22;43472;48.980;9.646;2022-10-16T01:32:37;15.60;99.90
28725;DHT22;43472;48.980;9.646;2022-10-16T01:43:17;15.60;99.90
28725;DHT22;43472;48.980;9.646;2022-10-16T01:48:18;15.60;99.90
28725;DHT22;43472;48.980;9.646;2022-10-16T01:53:22;15.50;99.90
28725;DHT22;43472;48.980;9.646;2022-10-16T01:58:27;15.50;99.90
28725;DHT22;43472;48.980;9.646;2022-10-16T02:03:32;15.40;99.90
28725;DHT22;43472;48.980;9.646;2022-10-16T02:08:36;16.10;99.90
28725;DHT22;43472;48.980;9.646;2022-10-16T02:13:52;15.40;99.90
28725;DHT22;43472;48.980;9.646;2022-10-16T02:18:55;15.50;99.90
28725;DHT22;43472;48.980;9.646;2022-10-16T02:24:46;15.40;99.90
28725;DHT22;43472;48.980;9.646;2022-10-16T02:29:42;15.40;99.90
28725;DHT22;43472;48.980;9.646;2022-10-16T02:34:48;15.40;99.90
28725;DHT22;43472;48.980;9.646;2022-10-16T02:39:50;15.50;99.90
28725;DHT22;43472;48.980;9.646;2022-10-16T02:44:53;13.90;99.90
28725;DHT22;43472;48.980;9.646;2022-10-16T02:49:54;15.40;99.90
28725;DHT22;43472;48.980;9.646;2022-10-16T02:59:58;15.40;99.90
28725;DHT22;43472;48.980;9.646;2022-10-16T03:05:00;15.40;99.90
28725;DHT22;43472;48.980;9.646;2022-10-16T03:10:02;15.40;99.90
28725;DHT22;43472;48.980;9.646;2022-10-16T03:15:04;15.40;99.90
28725;DHT22;43472;48.980;9.646;2022-10-16T03:20:07;16.20;99.90
28725;DHT22;43472;48.980;9.646;2022-10-16T03:25:08;15.40;99.90
28725;DHT22;43472;48.980;9.646;2022-10-16T03:30:10;15.40;99.90
28725;DHT22;43472;48.980;9.646;2022-10-16T03:35:13;15.40;99.90
28725;DHT22;43472;48.980;9.646;2022-10-16T03:40:15;15.30;99.90
28725;DHT22;43472;48.980;9.646;2022-10-16T04:15:29;15.10;99.90
28725;DHT22;43472;48.980;9.646;2022-10-16T04:20:32;15.10;99.90
28725;DHT22;43472;48.980;9.646;2022-10-16T04:25:33;15.10;99.90
28725;DHT22;43472;48.980;9.646;2022-10-16T04:30:37;15.10;99.90
28725;DHT22;43472;48.980;9.646;2022-10-16T04:35:39;15.10;99.90
28725;DHT22;43472;48.980;9.646;2022-10-16T04:40:42;15.10;99.90
28725;DHT22;43472;48.980;9.646;2022-10-16T04:45:44;15.20;99.90
28725;DHT22;43472;48.980;9.646;2022-10-16T04:50:45;15.00;99.90
28725;DHT22;43472;48.980;9.646;2022-10-16T04:55:53;14.90;99.90
28725;DHT22;43472;48.980;9.646;2022-10-16T05:00:55;15.40;99.90
28725;DHT22;43472;48.980;9.646;2022-10-16T05:05:56;14.90;99.90
28725;DHT22;43472;48.980;9.646;2022-10-16T05:16:01;15.00;99.90
28725;DHT22;43472;48.980;9.646;2022-10-16T05:21:03;15.00;99.90
28725;DHT22;43472;48.980;9.646;2022-10-16T05:26:04;14.90;99.90
28725;DHT22;43472;48.980;9.646;2022-10-16T05:31:07;16.30;99.90
28725;DHT22;43472;48.980;9.646;2022-10-16T05:41:12;14.90;99.90
28725;DHT22;43472;48.980;9.646;2022-10-16T05:46:14;14.90;99.90
28725;DHT22;43472;48.980;9.646;2022-10-16T05:51:16;14.90;99.90
28725;DHT22;43472;48.980;9.646;2022-10-16T05:56:18;14.90;99.90
28725;DHT22;43472;48.980;9.646;2022-10-16T06:01:20;15.00;99.90
28725;DHT22;43472;48.980;9.646;2022-10-16T06:06:27;15.00;99.90
28725;DHT22;43472;48.980;9.646;2022-10-16T06:11:31;15.00;99.90
28725;DHT22;43472;48.980;9.646;2022-10-16T06:16:37;15.00;99.90
28725;DHT22;43472;48.980;9.646;2022-10-16T06:26:41;15.00;99.90
28725;DHT22;43472;48.980;9.646;2022-10-16T06:31:43;15.00;99.90
28725;DHT22;43472;48.980;9.646;2022-10-16T06:36:44;15.10;99.90
28725;DHT22;43472;48.980;9.646;2022-10-16T06:41:46;15.10;99.90
28725;DHT22;43472;48.980;9.646;2022-10-16T06:46:48;15.10;99.90
28725;DHT22;43472;48.980;9.646;2022-10-16T06:51:50;15.20;99.90
28725;DHT22;43472;48.980;9.646;2022-10-16T07:01:55;15.40;99.90
28725;DHT22;43472;48.980;9.646;2022-10-16T07:06:59;15.40;99.90
28725;DHT22;43472;48.980;9.646;2022-10-16T07:12:02;15.40;99.90
28725;DHT22;43472;48.980;9.646;2022-10-16T07:17:04;15.50;99.90
28725;DHT22;43472;48.980;9.646;2022-10-16T07:27:08;15.60;99.90
28725;DHT22;43472;48.980;9.646;2022-10-16T07:32:09;16.30;99.90
28725;DHT22;43472;48.980;9.646;2022-10-16T07:37:11;15.80;99.90
28725;DHT22;43472;48.980;9.646;2022-10-16T07:42:13;16.00;99.90
28725;DHT22;43472;48.980;9.646;2022-10-16T07:47:15;15.90;99.90
28725;DHT22;43472;48.980;9.646;2022-10-16T07:57:19;15.90;99.90
28725;DHT22;43472;48.980;9.646;2022-10-16T08:02:21;15.90;99.90
28725;DHT22;43472;48.980;9.646;2022-10-16T08:07:23;15.90;99.90
28725;DHT22;43472;48.980;9.646;2022-10-16T08:12:26;15.90;99.90
28725;DHT22;43472;48.980;9.646;2022-10-16T08:17:27;15.90;99.90
28725;DHT22;43472;48.980;9.646;2022-10-16T08:22:30;16.10;99.90
28725;DHT22;43472;48.980;9.646;2022-10-16T08:27:32;16.00;99.90
28725;DHT22;43472;48.980;9.646;2022-10-16T08:32:36;16.50;99.90
28725;DHT22;43472;48.980;9.646;2022-10-16T08:37:38;16.40;99.90
28725;DHT22;43472;48.980;9.646;2022-10-16T08:53:24;17.30;99.90
28725;DHT22;43472;48.980;9.646;2022-10-16T08:58:29;18.00;99.90
28725;DHT22;43472;48.980;9.646;2022-10-16T09:09:04;18.80;99.90
28725;DHT22;43472;48.980;9.646;2022-10-16T09:19:42;18.70;99.90
28725;DHT22;43472;48.980;9.646;2022-10-16T09:24:53;18.30;99.90
28725;DHT22;43472;48.980;9.646;2022-10-16T09:30:17;18.40;99.90
28725;DHT22;43472;48.980;9.646;2022-10-16T09:35:21;18.50;99.90
28725;DHT22;43472;48.980;9.646;2022-10-16T09:40:35;18.50;99.90
28725;DHT22;43472;48.980;9.646;2022-10-16T09:45:37;18.60;99.90
28725;DHT22;43472;48.980;9.646;2022-10-16T09:50:39;18.80;99.90
28725;DHT22;43472;48.980;9.646;2022-10-16T09:55:49;19.10;99.90
28725;DHT22;43472;48.980;9.646;2022-10-16T10:00:53;19.60;99.90
28725;DHT22;43472;48.980;9.646;2022-10-16T10:05:55;20.10;99.90
28725;DHT22;43472;48.980;9.646;2022-10-16T10:11:02;20.30;99.90
28725;DHT22;43472;48.980;9.646;2022-10-16T10:16:04;20.60;99.90
28725;DHT22;43472;48.980;9.646;2022-10-16T10:21:14;20.70;99.90
28725;DHT22;43472;48.980;9.646;2022-10-16T10:26:23;21.10;99.90
28725;DHT22;43472;48.980;9.646;2022-10-16T10:36:41;22.10;99.90
28725;DHT22;43472;48.980;9.646;2022-10-16T10:42:01;22.70;99.90
28725;DHT22;43472;48.980;9.646;2022-10-16T10:47:32;23.60;99.90
28725;DHT22;43472;48.980;9.646;2022-10-16T10:58:24;23.30;99.90
28725;DHT22;43472;48.980;9.646;2022-10-16T11:04:08;25.00;99.90
28725;DHT22;43472;48.980;9.646;2022-10-16T11:09:28;24.40;99.90
28725;DHT22;43472;48.980;9.646;2022-10-16T11:24:55;24.40;99.90
28725;DHT22;43472;48.980;9.646;2022-10-16T11:30:02;24.70;99.90
28725;DHT22;43472;48.980;9.646;2022-10-16T11:35:13;26.60;99.90
28725;DHT22;43472;48.980;9.646;2022-10-16T11:40:29;28.00;99.90
28725;DHT22;43472;48.980;9.646;2022-10-16T11:46:12;27.30;99.90
28725;DHT22;43472;48.980;9.646;2022-10-16T11:51:21;26.50;99.90
28725;DHT22;43472;48.980;9.646;2022-10-16T11:56:27;27.20;99.90
28725;DHT22;43472;48.980;9.646;2022-10-16T12:01:55;27.60;99.90
28725;DHT22;43472;48.980;9.646;2022-10-16T12:07:03;28.60;99.90
28725;DHT22;43472;48.980;9.646;2022-10-16T12:12:28;28.40;99.90
28725;DHT22;43472;48.980;9.646;2022-10-16T12:17:38;28.70;99.90
28725;DHT22;43472;48.980;9.646;2022-10-16T12:23:00;27.80;99.90
28725;DHT22;43472;48.980;9.646;2022-10-16T12:33:34;26.80;99.90
28725;DHT22;43472;48.980;9.646;2022-10-16T12:38:46;26.40;99.90
28725;DHT22;43472;48.980;9.646;2022-10-16T12:43:48;26.80;99.90
28725;DHT22;43472;48.980;9.646;2022-10-16T12:48:50;26.90;99.90
28725;DHT22;43472;48.980;9.646;2022-10-16T12:54:15;28.30;99.90
28725;DHT22;43472;48.980;9.646;2022-10-16T13:04:31;29.50;98.60
28725;DHT22;43472;48.980;9.646;2022-10-16T13:09:58;31.30;96.40
28725;DHT22;43472;48.980;9.646;2022-10-16T13:15:09;29.90;96.70
28725;DHT22;43472;48.980;9.646;2022-10-16T13:30:53;27.80;98.10
28725;DHT22;43472;48.980;9.646;2022-10-16T13:35:56;26.50;99.90
28725;DHT22;43472;48.980;9.646;2022-10-16T13:41:12;25.90;99.90
28725;DHT22;43472;48.980;9.646;2022-10-16T13:46:20;25.20;99.90
28725;DHT22;43472;48.980;9.646;2022-10-16T13:51:22;24.80;99.90
28725;DHT22;43472;48.980;9.646;2022-10-16T13:56:31;24.30;99.90
28725;DHT22;43472;48.980;9.646;2022-10-16T14:01:42;23.90;99.90
28725;DHT22;43472;48.980;9.646;2022-10-16T14:06:46;23.40;99.90
28725;DHT22;43472;48.980;9.646;2022-10-16T14:11:58;23.70;99.90
28725;DHT22;43472;48.980;9.646;2022-10-16T14:17:03;29.10;99.90
28725;DHT22;43472;48.980;9.646;2022-10-16T14:22:35;30.90;99.90
28725;DHT22;43472;48.980;9.646;2022-10-16T14:27:37;30.00;99.90
28725;DHT22;43472;48.980;9.646;2022-10-16T14:32:41;28.90;99.90
28725;DHT22;43472;48.980;9.646;2022-10-16T14:37:43;28.80;99.90
28725;DHT22;43472;48.980;9.646;2022-10-16T14:42:46;25.00;99.90
28725;DHT22;43472;48.980;9.646;2022-10-16T14:47:50;24.80;99.90
28725;DHT22;43472;48.980;9.646;2022-10-16T14:52:54;24.10;99.90
28725;DHT22;43472;48.980;9.646;2022-10-16T14:57:56;23.50;99.90
28725;DHT22;43472;48.980;9.646;2022-10-16T15:03:01;23.00;99.90
28725;DHT22;43472;48.980;9.646;2022-10-16T15:08:03;22.50;99.90
28725;DHT22;43472;48.980;9.646;2022-10-16T15:13:06;22.10;99.90
28725;DHT22;43472;48.980;9.646;2022-10-16T15:18:10;21.80;99.90
28725;DHT22;43472;48.980;9.646;2022-10-16T15:23:20;21.70;99.90
28725;DHT22;43472;48.980;9.646;2022-10-16T15:28:24;21.60;99.90
28725;DHT22;43472;48.980;9.646;2022-10-16T15:33:28;21.50;99.90
28725;DHT22;43472;48.980;9.646;2022-10-16T15:38:40;21.30;99.90
28725;DHT22;43472;48.980;9.646;2022-10-16T15:43:41;21.10;99.90
28725;DHT22;43472;48.980;9.646;2022-10-16T15:48:47;21.00;99.90
28725;DHT22;43472;48.980;9.646;2022-10-16T15:53:49;20.50;99.90
28725;DHT22;43472;48.980;9.646;2022-10-16T15:58:52;20.50;99.90
28725;DHT22;43472;48.980;9.646;2022-10-16T16:03:55;20.40;99.90
28725;DHT22;43472;48.980;9.646;2022-10-16T16:08:58;20.30;99.90
28725;DHT22;43472;48.980;9.646;2022-10-16T16:14:01;20.10;99.90
28725;DHT22;43472;48.980;9.646;2022-10-16T16:19:04;19.90;99.90
28725;DHT22;43472;48.980;9.646;2022-10-16T16:24:11;19.80;99.90
28725;DHT22;43472;48.980;9.646;2022-10-16T16:29:14;19.70;99.90
28725;DHT22;43472;48.980;9.646;2022-10-16T16:34:16;19.50;99.90
28725;DHT22;43472;48.980;9.646;2022-10-16T16:39:18;19.30;99.90
28725;DHT22;43472;48.980;9.646;2022-10-16T16:44:20;19.10;99.90
28725;DHT22;43472;48.980;9.646;2022-10-16T16:49:22;19.10;99.90
28725;DHT22;43472;48.980;9.646;2022-10-16T16:54:23;19.00;99.90
28725;DHT22;43472;48.980;9.646;2022-10-16T16:59:25;18.90;99.90
28725;DHT22;43472;48.980;9.646;2022-10-16T17:04:27;18.80;99.90
28725;DHT22;43472;48.980;9.646;2022-10-16T17:09:31;18.80;99.90
28725;DHT22;43472;48.980;9.646;2022-10-16T17:14:32;18.80;99.90
28725;DHT22;43472;48.980;9.646;2022-10-16T17:19:34;18.70;99.90
28725;DHT22;43472;48.980;9.646;2022-10-16T17:24:36;18.60;99.90
28725;DHT22;43472;48.980;9.646;2022-10-16T17:29:38;18.50;99.90
28725;DHT22;43472;48.980;9.646;2022-10-16T17:34:39;18.50;99.90
28725;DHT22;43472;48.980;9.646;2022-10-16T17:39:41;18.40;99.90
28725;DHT22;43472;48.980;9.646;2022-10-16T17:44:43;18.30;99.90
28725;DHT22;43472;48.980;9.646;2022-10-16T17:54:49;18.20;99.90
28725;DHT22;43472;48.980;9.646;2022-10-16T17:59:53;18.00;99.90
28725;DHT22;43472;48.980;9.646;2022-10-16T18:04:55;17.90;99.90
28725;DHT22;43472;48.980;9.646;2022-10-16T18:15:19;17.70;99.90
28725;DHT22;43472;48.980;9.646;2022-10-16T18:20:20;17.60;99.90
28725;DHT22;43472;48.980;9.646;2022-10-16T18:25:22;17.50;99.90
28725;DHT22;43472;48.980;9.646;2022-10-16T18:30:24;17.40;99.90
28725;DHT22;43472;48.980;9.646;2022-10-16T18:35:26;17.30;99.90
28725;DHT22;43472;48.980;9.646;2022-10-16T18:40:27;17.10;99.90
28725;DHT22;43472;48.980;9.646;2022-10-16T18:55:33;17.00;99.90
28725;DHT22;43472;48.980;9.646;2022-10-16T19:00:35;17.10;99.90
28725;DHT22;43472;48.980;9.646;2022-10-16T19:10:39;16.80;99.90
28725;DHT22;43472;48.980;9.646;2022-10-16T19:15:42;16.70;99.90
28725;DHT22;43472;48.980;9.646;2022-10-16T19:21:00;16.60;99.90
28725;DHT22;43472;48.980;9.646;2022-10-16T19:26:08;16.50;99.90
28725;DHT22;43472;48.980;9.646;2022-10-16T19:31:18;16.50;99.90
28725;DHT22;43472;48.980;9.646;2022-10-16T19:41:24;16.40;99.90
28725;DHT22;43472;48.980;9.646;2022-10-16T19:51:29;16.40;99.90
28725;DHT22;43472;48.980;9.646;2022-10-16T19:56:33;17.10;99.90
28725;DHT22;43472;48.980;9.646;2022-10-16T20:01:35;16.20;99.90
28725;DHT22;43472;48.980;9.646;2022-10-16T20:06:37;18.50;99.90
28725;DHT22;43472;48.980;9.646;2022-10-16T20:11:39;16.00;99.90
28725;DHT22;43472;48.980;9.646;2022-10-16T20:16:41;15.90;99.90
28725;DHT22;43472;48.980;9.646;2022-10-16T20:26:45;15.80;99.90
28725;DHT22;43472;48.980;9.646;2022-10-16T20:36:49;15.70;99.90
28725;DHT22;43472;48.980;9.646;2022-10-16T20:46:54;15.60;99.90
28725;DHT22;43472;48.980;9.646;2022-10-16T20:51:56;15.60;99.90
28725;DHT22;43472;48.980;9.646;2022-10-16T20:56:58;16.40;99.90
28725;DHT22;43472;48.980;9.646;2022-10-16T21:01:59;17.70;99.90
28725;DHT22;43472;48.980;9.646;2022-10-16T21:07:01;15.40;99.90
28725;DHT22;43472;48.980;9.646;2022-10-16T21:12:05;15.50;99.90
28725;DHT22;43472;48.980;9.646;2022-10-16T21:17:07;15.30;99.90
28725;DHT22;43472;48.980;9.646;2022-10-16T21:27:11;15.20;99.90
28725;DHT22;43472;48.980;9.646;2022-10-16T21:32:13;15.30;99.90
28725;DHT22;43472;48.980;9.646;2022-10-16T21:42:16;15.20;99.90
28725;DHT22;43472;48.980;9.646;2022-10-16T21:47:18;16.70;99.90
28725;DHT22;43472;48.980;9.646;2022-10-16T21:52:20;15.10;99.90
28725;DHT22;43472;48.980;9.646;2022-10-16T21:57:21;15.10;99.90
28725;DHT22;43472;48.980;9.646;2022-10-16T22:02:23;15.20;99.90
28725;DHT22;43472;48.980;9.646;2022-10-16T22:07:25;15.10;99.90
28725;DHT22;43472;48.980;9.646;2022-10-16T22:12:28;15.00;99.90
28725;DHT22;43472;48.980;9.646;2022-10-16T22:17:30;14.90;99.90
28725;DHT22;43472;48.980;9.646;2022-10-16T22:22:32;15.00;99.90
28725;DHT22;43472;48.980;9.646;2022-10-16T22:27:33;18.00;99.90
28725;DHT22;43472;48.980;9.646;2022-10-16T22:32:35;14.90;99.90
28725;DHT22;43472;48.980;9.646;2022-10-16T22:37:37;14.90;99.90
28725;DHT22;43472;48.980;9.646;2022-10-16T22:42:39;14.80;99.90
28725;DHT22;43472;48.980;9.646;2022-10-16T22:47:40;14.70;99.90
28725;DHT22;43472;48.980;9.646;2022-10-16T22:57:44;14.50;99.90
28725;DHT22;43472;48.980;9.646;2022-10-16T23:02:46;14.50;99.90
28725;DHT22;43472;48.980;9.646;2022-10-16T23:07:48;14.50;99.90
28725;DHT22;43472;48.980;9.646;2022-10-16T23:17:52;14.30;99.90
28725;DHT22;43472;48.980;9.646;2022-10-16T23:32:58;14.30;99.90
28725;DHT22;43472;48.980;9.646;2022-10-16T23:48:04;14.10;99.90
28725;DHT22;43472;48.980;9.646;2022-10-16T23:58:10;14.10;99.90
